sensor_id;sensor_type;location;lat;lon;timestamp;temperature;humidity
43995;DHT22;51687;52.160;5.298;2024-02-26T00:02:20;15.90;50.40
43995;DHT22;51687;52.160;5.298;2024-02-26T00:04:46;15.80;50.60
43995;DHT22;51687;52.160;5.298;2024-02-26T00:07:16;15.80;50.20
43995;DHT22;51687;52.160;5.298;2024-02-26T00:09:43;15.90;49.40
43995;DHT22;51687;52.160;5.298;2024-02-26T00:12:10;15.80;50.90
43995;DHT22;51687;52.160;5.298;2024-02-26T00:14:36;15.80;50.20
43995;DHT22;51687;52.160;5.298;2024-02-26T00:17:03;15.80;50.50
43995;DHT22;51687;52.160;5.298;2024-02-26T00:19:30;15.80;50.30
43995;DHT22;51687;52.160;5.298;2024-02-26T00:21:57;15.80;50.40
43995;DHT22;51687;52.160;5.298;2024-02-26T00:24:25;15.80;50.40
43995;DHT22;51687;52.160;5.298;2024-02-26T00:26:52;15.80;49.80
43995;DHT22;51687;52.160;5.298;2024-02-26T00:29:21;15.80;52.10
43995;DHT22;51687;52.160;5.298;2024-02-26T00:31:48;15.80;51.10
43995;DHT22;51687;52.160;5.298;2024-02-26T00:34:15;15.80;50.50
43995;DHT22;51687;52.160;5.298;2024-02-26T00:36:42;15.80;50.20
43995;DHT22;51687;52.160;5.298;2024-02-26T00:39:09;15.80;51.20
43995;DHT22;51687;52.160;5.298;2024-02-26T00:41:40;15.90;52.40
43995;DHT22;51687;52.160;5.298;2024-02-26T00:44:08;15.90;51.20
43995;DHT22;51687;52.160;5.298;2024-02-26T00:46:35;15.80;50.60
43995;DHT22;51687;52.160;5.298;2024-02-26T00:49:02;15.90;50.00
43995;DHT22;51687;52.160;5.298;2024-02-26T00:51:30;15.80;51.60
43995;DHT22;51687;52.160;5.298;2024-02-26T00:53:57;15.80;50.70
43995;DHT22;51687;52.160;5.298;2024-02-26T00:56:24;15.80;52.60
43995;DHT22;51687;52.160;5.298;2024-02-26T00:58:51;15.80;50.90
43995;DHT22;51687;52.160;5.298;2024-02-26T01:01:18;15.80;52.20
43995;DHT22;51687;52.160;5.298;2024-02-26T01:03:44;15.90;54.40
43995;DHT22;51687;52.160;5.298;2024-02-26T01:06:11;16.00;55.40
43995;DHT22;51687;52.160;5.298;2024-02-26T01:11:06;16.00;54.50
43995;DHT22;51687;52.160;5.298;2024-02-26T01:13:33;16.20;56.00
43995;DHT22;51687;52.160;5.298;2024-02-26T01:16:00;16.20;55.10
43995;DHT22;51687;52.160;5.298;2024-02-26T03:56:06;16.30;56.80
43995;DHT22;51687;52.160;5.298;2024-02-26T03:58:34;17.10;54.60
43995;DHT22;51687;52.160;5.298;2024-02-26T04:01:01;17.00;53.40
43995;DHT22;51687;52.160;5.298;2024-02-26T04:03:28;17.00;53.30
43995;DHT22;51687;52.160;5.298;2024-02-26T04:05:55;17.00;55.00
43995;DHT22;51687;52.160;5.298;2024-02-26T04:08:21;17.00;55.70
43995;DHT22;51687;52.160;5.298;2024-02-26T04:10:49;17.00;53.60
43995;DHT22;51687;52.160;5.298;2024-02-26T04:13:16;17.00;53.30
43995;DHT22;51687;52.160;5.298;2024-02-26T04:15:43;17.00;54.50
43995;DHT22;51687;52.160;5.298;2024-02-26T04:18:10;17.00;54.30
43995;DHT22;51687;52.160;5.298;2024-02-26T04:20:37;16.90;53.10
43995;DHT22;51687;52.160;5.298;2024-02-26T04:23:04;16.90;54.00
43995;DHT22;51687;52.160;5.298;2024-02-26T04:25:31;17.00;53.80
43995;DHT22;51687;52.160;5.298;2024-02-26T04:27:58;17.00;55.60
43995;DHT22;51687;52.160;5.298;2024-02-26T04:30:26;16.90;55.40
43995;DHT22;51687;52.160;5.298;2024-02-26T04:32:53;16.90;54.50
43995;DHT22;51687;52.160;5.298;2024-02-26T04:35:20;16.90;53.90
43995;DHT22;51687;52.160;5.298;2024-02-26T04:37:46;16.90;55.50
43995;DHT22;51687;52.160;5.298;2024-02-26T04:40:13;16.90;54.20
43995;DHT22;51687;52.160;5.298;2024-02-26T04:42:40;16.90;54.20
43995;DHT22;51687;52.160;5.298;2024-02-26T04:45:07;16.90;54.30
43995;DHT22;51687;52.160;5.298;2024-02-26T04:47:35;16.90;53.10
43995;DHT22;51687;52.160;5.298;2024-02-26T04:50:02;16.80;53.60
43995;DHT22;51687;52.160;5.298;2024-02-26T04:52:29;16.70;52.50
43995;DHT22;51687;52.160;5.298;2024-02-26T04:54:56;16.70;52.80
43995;DHT22;51687;52.160;5.298;2024-02-26T04:57:22;16.60;54.00
43995;DHT22;51687;52.160;5.298;2024-02-26T04:59:49;16.50;54.40
43995;DHT22;51687;52.160;5.298;2024-02-26T05:02:16;16.50;54.30
43995;DHT22;51687;52.160;5.298;2024-02-26T05:04:43;16.50;54.10
43995;DHT22;51687;52.160;5.298;2024-02-26T05:07:10;16.50;56.80
43995;DHT22;51687;52.160;5.298;2024-02-26T05:09:37;16.50;55.50
43995;DHT22;51687;52.160;5.298;2024-02-26T05:12:04;16.50;55.90
43995;DHT22;51687;52.160;5.298;2024-02-26T05:14:31;16.50;58.00
43995;DHT22;51687;52.160;5.298;2024-02-26T05:16:58;16.50;60.20
43995;DHT22;51687;52.160;5.298;2024-02-26T05:19:25;16.60;56.00
43995;DHT22;51687;52.160;5.298;2024-02-26T05:21:52;16.70;62.00
43995;DHT22;51687;52.160;5.298;2024-02-26T05:24:19;16.60;60.00
43995;DHT22;51687;52.160;5.298;2024-02-26T05:26:49;16.70;56.40
43995;DHT22;51687;52.160;5.298;2024-02-26T05:29:16;16.70;59.40
43995;DHT22;51687;52.160;5.298;2024-02-26T05:31:43;16.70;56.20
43995;DHT22;51687;52.160;5.298;2024-02-26T05:34:10;16.70;56.90
43995;DHT22;51687;52.160;5.298;2024-02-26T05:36:37;16.70;62.40
43995;DHT22;51687;52.160;5.298;2024-02-26T05:39:04;16.70;56.40
43995;DHT22;51687;52.160;5.298;2024-02-26T05:41:31;16.70;58.50
43995;DHT22;51687;52.160;5.298;2024-02-26T05:43:58;16.60;54.90
43995;DHT22;51687;52.160;5.298;2024-02-26T05:46:25;16.60;56.70
43995;DHT22;51687;52.160;5.298;2024-02-26T05:48:54;16.50;54.70
43995;DHT22;51687;52.160;5.298;2024-02-26T05:51:21;16.40;56.70
43995;DHT22;51687;52.160;5.298;2024-02-26T05:53:48;16.40;55.50
43995;DHT22;51687;52.160;5.298;2024-02-26T05:56:21;16.40;55.80
43995;DHT22;51687;52.160;5.298;2024-02-26T05:58:49;16.40;55.90
43995;DHT22;51687;52.160;5.298;2024-02-26T06:01:16;16.30;56.00
43995;DHT22;51687;52.160;5.298;2024-02-26T06:03:44;16.40;59.70
43995;DHT22;51687;52.160;5.298;2024-02-26T06:06:11;16.40;58.30
43995;DHT22;51687;52.160;5.298;2024-02-26T06:08:38;16.40;56.10
43995;DHT22;51687;52.160;5.298;2024-02-26T06:11:08;16.40;56.30
43995;DHT22;51687;52.160;5.298;2024-02-26T06:13:35;16.40;55.90
43995;DHT22;51687;52.160;5.298;2024-02-26T06:16:02;16.20;49.40
43995;DHT22;51687;52.160;5.298;2024-02-26T06:20:57;15.80;48.80
43995;DHT22;51687;52.160;5.298;2024-02-26T06:23:24;14.90;49.60
43995;DHT22;51687;52.160;5.298;2024-02-26T06:25:52;14.50;50.40
43995;DHT22;51687;52.160;5.298;2024-02-26T06:28:19;14.20;51.20
43995;DHT22;51687;52.160;5.298;2024-02-26T06:30:46;13.90;51.90
43995;DHT22;51687;52.160;5.298;2024-02-26T06:33:13;13.70;52.60
43995;DHT22;51687;52.160;5.298;2024-02-26T06:35:41;13.40;53.30
43995;DHT22;51687;52.160;5.298;2024-02-26T06:38:08;13.20;53.80
43995;DHT22;51687;52.160;5.298;2024-02-26T06:40:36;13.10;54.50
43995;DHT22;51687;52.160;5.298;2024-02-26T06:43:03;12.80;55.00
43995;DHT22;51687;52.160;5.298;2024-02-26T06:45:30;12.70;55.50
43995;DHT22;51687;52.160;5.298;2024-02-26T06:47:57;12.50;55.90
43995;DHT22;51687;52.160;5.298;2024-02-26T06:50:24;12.40;56.40
43995;DHT22;51687;52.160;5.298;2024-02-26T06:52:53;12.30;56.90
43995;DHT22;51687;52.160;5.298;2024-02-26T06:55:20;12.20;57.40
43995;DHT22;51687;52.160;5.298;2024-02-26T07:00:14;12.10;57.50
43995;DHT22;51687;52.160;5.298;2024-02-26T07:02:43;12.00;58.00
43995;DHT22;51687;52.160;5.298;2024-02-26T07:05:10;11.90;58.30
43995;DHT22;51687;52.160;5.298;2024-02-26T07:07:37;11.80;58.40
43995;DHT22;51687;52.160;5.298;2024-02-26T07:10:07;11.80;58.70
43995;DHT22;51687;52.160;5.298;2024-02-26T07:12:33;11.70;59.00
43995;DHT22;51687;52.160;5.298;2024-02-26T07:15:00;11.70;59.20
43995;DHT22;51687;52.160;5.298;2024-02-26T07:17:29;11.70;59.40
43995;DHT22;51687;52.160;5.298;2024-02-26T07:19:56;11.60;59.70
43995;DHT22;51687;52.160;5.298;2024-02-26T07:22:23;11.60;59.60
43995;DHT22;51687;52.160;5.298;2024-02-26T07:24:51;11.50;59.60
43995;DHT22;51687;52.160;5.298;2024-02-26T07:32:15;11.50;59.90
43995;DHT22;51687;52.160;5.298;2024-02-26T07:34:43;11.50;60.60
43995;DHT22;51687;52.160;5.298;2024-02-26T07:37:11;11.50;60.40
43995;DHT22;51687;52.160;5.298;2024-02-26T07:39:38;11.40;60.40
43995;DHT22;51687;52.160;5.298;2024-02-26T07:42:05;11.40;60.70
43995;DHT22;51687;52.160;5.298;2024-02-26T07:44:33;11.40;60.50
43995;DHT22;51687;52.160;5.298;2024-02-26T07:47:00;11.40;60.50
43995;DHT22;51687;52.160;5.298;2024-02-26T07:49:27;11.40;60.90
43995;DHT22;51687;52.160;5.298;2024-02-26T07:51:54;11.30;60.80
43995;DHT22;51687;52.160;5.298;2024-02-26T07:54:21;11.30;61.80
43995;DHT22;51687;52.160;5.298;2024-02-26T07:56:48;11.30;60.90
43995;DHT22;51687;52.160;5.298;2024-02-26T07:59:15;11.20;60.80
43995;DHT22;51687;52.160;5.298;2024-02-26T08:01:42;11.10;61.00
43995;DHT22;51687;52.160;5.298;2024-02-26T08:04:11;11.10;61.50
43995;DHT22;51687;52.160;5.298;2024-02-26T08:06:38;11.10;61.40
43995;DHT22;51687;52.160;5.298;2024-02-26T08:11:33;11.00;61.20
43995;DHT22;51687;52.160;5.298;2024-02-26T08:14:00;11.00;62.00
43995;DHT22;51687;52.160;5.298;2024-02-26T08:16:27;11.00;62.40
43995;DHT22;51687;52.160;5.298;2024-02-26T08:18:54;11.00;61.50
43995;DHT22;51687;52.160;5.298;2024-02-26T08:21:21;11.00;61.60
43995;DHT22;51687;52.160;5.298;2024-02-26T08:23:48;11.00;61.90
43995;DHT22;51687;52.160;5.298;2024-02-26T08:26:15;11.10;67.00
43995;DHT22;51687;52.160;5.298;2024-02-26T08:31:10;11.50;72.90
43995;DHT22;51687;52.160;5.298;2024-02-26T08:53:20;12.30;69.30
43995;DHT22;51687;52.160;5.298;2024-02-26T08:58:27;14.50;63.20
43995;DHT22;51687;52.160;5.298;2024-02-26T09:00:54;14.60;63.40
43995;DHT22;51687;52.160;5.298;2024-02-26T09:15:39;14.70;61.50
43995;DHT22;51687;52.160;5.298;2024-02-26T09:20:33;15.30;60.80
43995;DHT22;51687;52.160;5.298;2024-02-26T09:23:01;15.40;61.60
43995;DHT22;51687;52.160;5.298;2024-02-26T10:40:19;15.40;61.20
43995;DHT22;51687;52.160;5.298;2024-02-26T10:42:46;15.60;57.10
43995;DHT22;51687;52.160;5.298;2024-02-26T10:45:13;15.60;57.10
43995;DHT22;51687;52.160;5.298;2024-02-26T10:47:41;15.60;55.50
43995;DHT22;51687;52.160;5.298;2024-02-26T10:50:13;15.50;55.80
43995;DHT22;51687;52.160;5.298;2024-02-26T10:52:42;15.50;55.80
43995;DHT22;51687;52.160;5.298;2024-02-26T10:55:16;15.50;54.80
43995;DHT22;51687;52.160;5.298;2024-02-26T10:57:47;15.40;56.20
43995;DHT22;51687;52.160;5.298;2024-02-26T11:00:17;15.50;58.40
43995;DHT22;51687;52.160;5.298;2024-02-26T11:02:45;15.50;58.70
43995;DHT22;51687;52.160;5.298;2024-02-26T11:05:13;15.60;57.60
43995;DHT22;51687;52.160;5.298;2024-02-26T11:07:42;15.50;55.50
43995;DHT22;51687;52.160;5.298;2024-02-26T11:10:11;15.50;56.40
43995;DHT22;51687;52.160;5.298;2024-02-26T11:12:39;15.50;55.20
43995;DHT22;51687;52.160;5.298;2024-02-26T11:15:07;15.50;56.40
43995;DHT22;51687;52.160;5.298;2024-02-26T11:17:35;15.50;57.70
43995;DHT22;51687;52.160;5.298;2024-02-26T11:20:03;15.50;56.80
43995;DHT22;51687;52.160;5.298;2024-02-26T11:22:30;15.50;60.40
43995;DHT22;51687;52.160;5.298;2024-02-26T11:24:58;15.40;57.60
43995;DHT22;51687;52.160;5.298;2024-02-26T11:27:35;15.40;57.10
43995;DHT22;51687;52.160;5.298;2024-02-26T11:30:05;15.40;58.70
43995;DHT22;51687;52.160;5.298;2024-02-26T11:32:35;15.50;59.30
43995;DHT22;51687;52.160;5.298;2024-02-26T11:35:04;15.60;58.20
43995;DHT22;51687;52.160;5.298;2024-02-26T11:37:32;15.70;59.20
43995;DHT22;51687;52.160;5.298;2024-02-26T11:40:04;15.70;57.30
43995;DHT22;51687;52.160;5.298;2024-02-26T11:42:32;15.70;59.00
43995;DHT22;51687;52.160;5.298;2024-02-26T11:45:01;15.70;55.50
43995;DHT22;51687;52.160;5.298;2024-02-26T11:47:29;15.70;56.30
43995;DHT22;51687;52.160;5.298;2024-02-26T11:49:56;15.60;56.60
43995;DHT22;51687;52.160;5.298;2024-02-26T11:52:23;15.60;57.20
43995;DHT22;51687;52.160;5.298;2024-02-26T11:54:56;15.70;56.90
43995;DHT22;51687;52.160;5.298;2024-02-26T12:00:12;15.70;56.20
43995;DHT22;51687;52.160;5.298;2024-02-26T12:05:31;15.70;55.90
43995;DHT22;51687;52.160;5.298;2024-02-26T12:08:08;15.70;55.70
43995;DHT22;51687;52.160;5.298;2024-02-26T12:10:37;15.70;56.70
43995;DHT22;51687;52.160;5.298;2024-02-26T12:13:17;15.70;56.40
43995;DHT22;51687;52.160;5.298;2024-02-26T12:16:06;15.70;56.00
43995;DHT22;51687;52.160;5.298;2024-02-26T12:18:34;15.70;59.50
43995;DHT22;51687;52.160;5.298;2024-02-26T12:21:02;15.70;56.80
43995;DHT22;51687;52.160;5.298;2024-02-26T12:23:30;15.80;56.80
43995;DHT22;51687;52.160;5.298;2024-02-26T12:26:00;15.70;55.30
43995;DHT22;51687;52.160;5.298;2024-02-26T12:28:31;15.70;55.20
43995;DHT22;51687;52.160;5.298;2024-02-26T12:30:58;15.70;56.70
43995;DHT22;51687;52.160;5.298;2024-02-26T12:33:27;15.80;60.00
43995;DHT22;51687;52.160;5.298;2024-02-26T12:35:54;15.80;56.50
43995;DHT22;51687;52.160;5.298;2024-02-26T12:38:21;15.80;57.40
43995;DHT22;51687;52.160;5.298;2024-02-26T12:40:48;15.80;57.80
43995;DHT22;51687;52.160;5.298;2024-02-26T12:43:16;15.90;58.70
43995;DHT22;51687;52.160;5.298;2024-02-26T12:45:43;15.80;56.40
43995;DHT22;51687;52.160;5.298;2024-02-26T12:48:14;15.80;58.20
43995;DHT22;51687;52.160;5.298;2024-02-26T12:50:45;15.80;57.00
43995;DHT22;51687;52.160;5.298;2024-02-26T12:53:14;15.80;56.10
43995;DHT22;51687;52.160;5.298;2024-02-26T12:55:41;15.80;56.80
43995;DHT22;51687;52.160;5.298;2024-02-26T12:58:08;15.90;57.00
43995;DHT22;51687;52.160;5.298;2024-02-26T13:00:36;15.90;56.80
43995;DHT22;51687;52.160;5.298;2024-02-26T13:03:03;15.90;57.50
43995;DHT22;51687;52.160;5.298;2024-02-26T13:05:31;15.90;57.80
43995;DHT22;51687;52.160;5.298;2024-02-26T13:07:58;15.90;57.70
43995;DHT22;51687;52.160;5.298;2024-02-26T13:10:25;16.00;56.80
43995;DHT22;51687;52.160;5.298;2024-02-26T13:12:52;16.00;56.40
43995;DHT22;51687;52.160;5.298;2024-02-26T13:23:05;16.00;58.20
43995;DHT22;51687;52.160;5.298;2024-02-26T13:25:33;16.10;56.40
43995;DHT22;51687;52.160;5.298;2024-02-26T13:28:17;16.10;57.90
43995;DHT22;51687;52.160;5.298;2024-02-26T13:30:53;16.10;56.20
43995;DHT22;51687;52.160;5.298;2024-02-26T14:03:01;16.10;55.10
43995;DHT22;51687;52.160;5.298;2024-02-26T14:05:29;16.30;58.90
43995;DHT22;51687;52.160;5.298;2024-02-26T14:07:58;16.30;57.70
43995;DHT22;51687;52.160;5.298;2024-02-26T14:10:26;16.40;58.90
43995;DHT22;51687;52.160;5.298;2024-02-26T14:12:53;16.50;57.70
43995;DHT22;51687;52.160;5.298;2024-02-26T14:15:20;16.50;55.70
43995;DHT22;51687;52.160;5.298;2024-02-26T14:17:46;16.50;54.80
43995;DHT22;51687;52.160;5.298;2024-02-26T14:20:21;16.40;53.80
43995;DHT22;51687;52.160;5.298;2024-02-26T14:22:49;16.40;54.70
43995;DHT22;51687;52.160;5.298;2024-02-26T14:25:16;16.40;57.40
43995;DHT22;51687;52.160;5.298;2024-02-26T14:27:42;16.40;56.90
43995;DHT22;51687;52.160;5.298;2024-02-26T14:30:09;16.40;54.40
43995;DHT22;51687;52.160;5.298;2024-02-26T14:32:36;16.40;53.40
43995;DHT22;51687;52.160;5.298;2024-02-26T14:35:06;16.30;53.90
43995;DHT22;51687;52.160;5.298;2024-02-26T14:37:36;16.30;54.40
43995;DHT22;51687;52.160;5.298;2024-02-26T14:40:03;16.30;56.50
43995;DHT22;51687;52.160;5.298;2024-02-26T14:42:31;16.30;55.00
43995;DHT22;51687;52.160;5.298;2024-02-26T14:44:58;16.30;54.80
43995;DHT22;51687;52.160;5.298;2024-02-26T14:47:26;16.30;54.70
43995;DHT22;51687;52.160;5.298;2024-02-26T14:49:53;16.20;55.20
43995;DHT22;51687;52.160;5.298;2024-02-26T14:52:20;16.20;54.30
43995;DHT22;51687;52.160;5.298;2024-02-26T14:54:47;16.20;54.30
43995;DHT22;51687;52.160;5.298;2024-02-26T14:57:13;16.20;54.30
43995;DHT22;51687;52.160;5.298;2024-02-26T14:59:40;16.20;55.70
43995;DHT22;51687;52.160;5.298;2024-02-26T15:02:08;16.20;55.40
43995;DHT22;51687;52.160;5.298;2024-02-26T15:04:36;16.20;54.90
43995;DHT22;51687;52.160;5.298;2024-02-26T15:07:04;16.20;54.90
43995;DHT22;51687;52.160;5.298;2024-02-26T15:09:31;16.20;54.00
43995;DHT22;51687;52.160;5.298;2024-02-26T15:11:58;16.20;55.30
43995;DHT22;51687;52.160;5.298;2024-02-26T15:14:24;16.20;57.10
43995;DHT22;51687;52.160;5.298;2024-02-26T15:16:52;16.20;55.80
43995;DHT22;51687;52.160;5.298;2024-02-26T15:19:19;16.20;54.30
43995;DHT22;51687;52.160;5.298;2024-02-26T15:21:47;16.10;54.50
43995;DHT22;51687;52.160;5.298;2024-02-26T15:24:14;16.20;55.60
43995;DHT22;51687;52.160;5.298;2024-02-26T15:26:45;16.20;54.50
43995;DHT22;51687;52.160;5.298;2024-02-26T15:29:12;16.20;54.00
43995;DHT22;51687;52.160;5.298;2024-02-26T15:31:39;16.20;54.00
43995;DHT22;51687;52.160;5.298;2024-02-26T15:34:07;16.20;53.50
43995;DHT22;51687;52.160;5.298;2024-02-26T15:36:34;16.10;53.50
43995;DHT22;51687;52.160;5.298;2024-02-26T15:39:02;16.00;54.60
43995;DHT22;51687;52.160;5.298;2024-02-26T15:41:30;16.00;53.70
43995;DHT22;51687;52.160;5.298;2024-02-26T15:43:57;15.90;53.80
43995;DHT22;51687;52.160;5.298;2024-02-26T15:46:24;15.90;53.70
43995;DHT22;51687;52.160;5.298;2024-02-26T15:48:50;15.90;55.50
43995;DHT22;51687;52.160;5.298;2024-02-26T15:51:22;15.90;54.50
43995;DHT22;51687;52.160;5.298;2024-02-26T15:53:51;15.90;55.90
43995;DHT22;51687;52.160;5.298;2024-02-26T15:56:18;15.90;54.60
43995;DHT22;51687;52.160;5.298;2024-02-26T15:58:50;15.90;54.70
43995;DHT22;51687;52.160;5.298;2024-02-26T16:01:18;15.90;55.20
43995;DHT22;51687;52.160;5.298;2024-02-26T16:03:51;15.90;53.70
43995;DHT22;51687;52.160;5.298;2024-02-26T16:06:28;15.90;54.80
43995;DHT22;51687;52.160;5.298;2024-02-26T16:08:56;15.90;54.60
43995;DHT22;51687;52.160;5.298;2024-02-26T16:11:22;15.90;54.80
43995;DHT22;51687;52.160;5.298;2024-02-26T16:16:38;15.90;53.50
43995;DHT22;51687;52.160;5.298;2024-02-26T16:19:11;15.90;53.50
43995;DHT22;51687;52.160;5.298;2024-02-26T16:21:42;15.90;53.20
43995;DHT22;51687;52.160;5.298;2024-02-26T16:24:09;15.80;54.60
43995;DHT22;51687;52.160;5.298;2024-02-26T16:26:36;15.80;50.60
43995;DHT22;51687;52.160;5.298;2024-02-26T16:29:03;15.50;49.00
43995;DHT22;51687;52.160;5.298;2024-02-26T16:31:30;15.30;49.60
43995;DHT22;51687;52.160;5.298;2024-02-26T16:33:57;14.90;49.70
43995;DHT22;51687;52.160;5.298;2024-02-26T16:36:24;14.60;50.20
43995;DHT22;51687;52.160;5.298;2024-02-26T16:38:51;14.40;50.50
43995;DHT22;51687;52.160;5.298;2024-02-26T16:41:17;14.20;52.70
43995;DHT22;51687;52.160;5.298;2024-02-26T16:43:44;14.10;56.10
43995;DHT22;51687;52.160;5.298;2024-02-26T16:46:12;14.30;55.90
43995;DHT22;51687;52.160;5.298;2024-02-26T16:48:41;14.40;54.90
43995;DHT22;51687;52.160;5.298;2024-02-26T16:51:08;14.50;57.10
43995;DHT22;51687;52.160;5.298;2024-02-26T16:53:35;14.50;57.50
43995;DHT22;51687;52.160;5.298;2024-02-26T16:56:02;14.70;58.20
43995;DHT22;51687;52.160;5.298;2024-02-26T16:58:29;14.80;57.60
43995;DHT22;51687;52.160;5.298;2024-02-26T17:00:56;14.90;55.80
43995;DHT22;51687;52.160;5.298;2024-02-26T17:03:23;15.00;56.40
43995;DHT22;51687;52.160;5.298;2024-02-26T17:05:50;15.10;56.20
43995;DHT22;51687;52.160;5.298;2024-02-26T17:08:17;15.10;57.40
43995;DHT22;51687;52.160;5.298;2024-02-26T17:10:44;15.20;56.70
43995;DHT22;51687;52.160;5.298;2024-02-26T17:13:10;15.30;56.50
43995;DHT22;51687;52.160;5.298;2024-02-26T17:15:39;15.40;56.70
43995;DHT22;51687;52.160;5.298;2024-02-26T17:18:06;15.50;55.60
43995;DHT22;51687;52.160;5.298;2024-02-26T17:20:42;15.50;55.50
43995;DHT22;51687;52.160;5.298;2024-02-26T17:23:09;15.50;54.40
43995;DHT22;51687;52.160;5.298;2024-02-26T17:25:35;15.50;54.70
43995;DHT22;51687;52.160;5.298;2024-02-26T17:28:02;15.50;52.50
43995;DHT22;51687;52.160;5.298;2024-02-26T17:30:29;15.50;54.40
43995;DHT22;51687;52.160;5.298;2024-02-26T17:32:56;15.40;54.20
43995;DHT22;51687;52.160;5.298;2024-02-26T17:35:23;15.50;54.90
43995;DHT22;51687;52.160;5.298;2024-02-26T17:37:50;15.30;49.00
43995;DHT22;51687;52.160;5.298;2024-02-26T17:40:18;14.90;48.30
43995;DHT22;51687;52.160;5.298;2024-02-26T17:45:14;14.50;48.80
43995;DHT22;51687;52.160;5.298;2024-02-26T17:47:41;13.90;50.20
43995;DHT22;51687;52.160;5.298;2024-02-26T17:50:08;13.70;52.40
43995;DHT22;51687;52.160;5.298;2024-02-26T17:52:35;13.60;53.20
43995;DHT22;51687;52.160;5.298;2024-02-26T17:55:04;13.70;54.50
43995;DHT22;51687;52.160;5.298;2024-02-26T17:57:31;13.80;55.70
43995;DHT22;51687;52.160;5.298;2024-02-26T17:59:58;13.90;56.50
43995;DHT22;51687;52.160;5.298;2024-02-26T18:02:25;14.00;55.30
43995;DHT22;51687;52.160;5.298;2024-02-26T18:04:51;14.10;57.30
43995;DHT22;51687;52.160;5.298;2024-02-26T18:07:18;14.20;54.40
43995;DHT22;51687;52.160;5.298;2024-02-26T18:09:45;14.30;53.50
43995;DHT22;51687;52.160;5.298;2024-02-26T18:12:12;14.30;54.80
43995;DHT22;51687;52.160;5.298;2024-02-26T18:14:39;14.30;52.70
43995;DHT22;51687;52.160;5.298;2024-02-26T18:17:05;14.30;54.00
43995;DHT22;51687;52.160;5.298;2024-02-26T18:19:32;14.30;53.90
43995;DHT22;51687;52.160;5.298;2024-02-26T18:22:00;14.40;51.90
43995;DHT22;51687;52.160;5.298;2024-02-26T18:24:27;14.40;54.20
43995;DHT22;51687;52.160;5.298;2024-02-26T18:26:54;14.40;57.30
43995;DHT22;51687;52.160;5.298;2024-02-26T18:29:21;14.50;55.80
43995;DHT22;51687;52.160;5.298;2024-02-26T18:31:48;14.60;56.60
43995;DHT22;51687;52.160;5.298;2024-02-26T18:34:15;14.60;52.20
43995;DHT22;51687;52.160;5.298;2024-02-26T18:36:43;14.50;53.50
43995;DHT22;51687;52.160;5.298;2024-02-26T18:39:09;14.50;52.70
43995;DHT22;51687;52.160;5.298;2024-02-26T18:41:36;14.50;54.90
43995;DHT22;51687;52.160;5.298;2024-02-26T18:44:03;14.50;55.60
43995;DHT22;51687;52.160;5.298;2024-02-26T18:46:30;14.60;55.00
43995;DHT22;51687;52.160;5.298;2024-02-26T19:26:00;14.70;55.90
43995;DHT22;51687;52.160;5.298;2024-02-26T20:32:37;14.90;54.60
43995;DHT22;51687;52.160;5.298;2024-02-26T20:35:04;15.00;55.80
43995;DHT22;51687;52.160;5.298;2024-02-26T20:37:33;15.10;55.10
43995;DHT22;51687;52.160;5.298;2024-02-26T20:40:00;15.10;55.60
43995;DHT22;51687;52.160;5.298;2024-02-26T20:42:27;15.10;54.40
43995;DHT22;51687;52.160;5.298;2024-02-26T20:44:53;15.20;52.80
43995;DHT22;51687;52.160;5.298;2024-02-26T20:47:20;15.10;53.90
43995;DHT22;51687;52.160;5.298;2024-02-26T20:49:48;15.10;52.90
43995;DHT22;51687;52.160;5.298;2024-02-26T20:52:15;15.10;52.80
43995;DHT22;51687;52.160;5.298;2024-02-26T20:54:42;15.10;53.30
43995;DHT22;51687;52.160;5.298;2024-02-26T20:57:13;15.10;54.60
43995;DHT22;51687;52.160;5.298;2024-02-26T20:59:40;15.10;51.30
43995;DHT22;51687;52.160;5.298;2024-02-26T21:07:05;15.10;52.70
43995;DHT22;51687;52.160;5.298;2024-02-26T21:31:46;15.00;53.30
43995;DHT22;51687;52.160;5.298;2024-02-26T21:34:13;15.20;54.90
43995;DHT22;51687;52.160;5.298;2024-02-26T21:36:41;15.30;53.90
43995;DHT22;51687;52.160;5.298;2024-02-26T21:39:08;15.30;54.20
43995;DHT22;51687;52.160;5.298;2024-02-26T21:41:37;15.40;53.10
43995;DHT22;51687;52.160;5.298;2024-02-26T21:44:04;15.40;55.20
43995;DHT22;51687;52.160;5.298;2024-02-26T21:46:35;15.40;53.30
43995;DHT22;51687;52.160;5.298;2024-02-26T21:49:06;15.40;53.50
43995;DHT22;51687;52.160;5.298;2024-02-26T21:51:33;15.50;55.10
43995;DHT22;51687;52.160;5.298;2024-02-26T21:54:00;15.50;55.00
43995;DHT22;51687;52.160;5.298;2024-02-26T21:56:27;15.50;52.80
43995;DHT22;51687;52.160;5.298;2024-02-26T21:58:54;15.50;53.00
43995;DHT22;51687;52.160;5.298;2024-02-26T22:01:21;15.50;53.00
43995;DHT22;51687;52.160;5.298;2024-02-26T22:03:47;15.50;52.30
43995;DHT22;51687;52.160;5.298;2024-02-26T22:06:16;15.40;53.00
43995;DHT22;51687;52.160;5.298;2024-02-26T22:08:43;15.50;54.90
43995;DHT22;51687;52.160;5.298;2024-02-26T22:11:11;15.50;54.20
43995;DHT22;51687;52.160;5.298;2024-02-26T22:13:38;15.60;54.60
43995;DHT22;51687;52.160;5.298;2024-02-26T22:16:05;15.60;54.50
43995;DHT22;51687;52.160;5.298;2024-02-26T22:18:32;15.70;54.50
43995;DHT22;51687;52.160;5.298;2024-02-26T22:20:59;15.70;54.90
43995;DHT22;51687;52.160;5.298;2024-02-26T22:23:30;15.80;54.30
43995;DHT22;51687;52.160;5.298;2024-02-26T22:25:57;15.80;54.60
43995;DHT22;51687;52.160;5.298;2024-02-26T22:28:23;15.80;53.80
43995;DHT22;51687;52.160;5.298;2024-02-26T22:30:50;15.80;54.00
43995;DHT22;51687;52.160;5.298;2024-02-26T22:33:17;15.90;54.10
43995;DHT22;51687;52.160;5.298;2024-02-26T23:57:08;15.90;53.30
43995;DHT22;51687;52.160;5.298;2024-02-26T23:59:35;15.40;48.90
